createdAt,value
2019-01-27T00:02:18.459Z,98514.28
2019-01-27T00:07:21.927Z,98497.95
2019-01-27T00:12:25.384Z,98491.16
2019-01-27T00:17:29.013Z,98480.21
2019-01-27T00:22:32.475Z,98472.81
2019-01-27T00:27:35.934Z,98468.82
2019-01-27T00:32:39.396Z,98462.96
2019-01-27T00:37:43.029Z,98458.48
2019-01-27T00:42:46.567Z,98451.11
2019-01-27T00:47:50.025Z,98436.02
2019-01-27T00:52:53.488Z,98430.94
2019-01-27T00:57:56.956Z,98418.63
2019-01-27T01:03:00.438Z,98411.55
2019-01-27T01:08:05.538Z,98391.08
2019-01-27T01:13:09.065Z,98390.95
2019-01-27T01:18:12.705Z,98383.86
2019-01-27T01:23:16.165Z,98383.55
2019-01-27T01:28:19.633Z,98374.30
2019-01-27T01:33:23.096Z,98362.91
2019-01-27T01:38:26.553Z,98355.86
2019-01-27T01:43:30.014Z,98345.39
2019-01-27T01:48:33.646Z,98328.47
2019-01-27T01:53:37.105Z,98319.38
2019-01-27T01:58:40.574Z,98298.45
2019-01-27T02:03:44.026Z,98288.45
2019-01-27T02:08:47.489Z,98276.48
2019-01-27T02:13:50.950Z,98267.25
2019-01-27T02:18:54.419Z,98266.62
2019-01-27T02:23:57.961Z,98249.70
2019-01-27T02:29:01.426Z,98236.93
2019-01-27T02:34:05.157Z,98235.39
2019-01-27T02:39:09.024Z,98221.70
2019-01-27T02:44:12.486Z,98214.62
2019-01-27T02:49:15.946Z,98188.97
2019-01-27T02:54:19.414Z,98169.58
2019-01-27T02:59:22.880Z,98159.58
2019-01-27T03:04:26.346Z,98149.89
2019-01-27T03:09:30.705Z,98139.28
2019-01-27T03:14:34.161Z,98130.97
2019-01-27T03:19:37.616Z,98108.67
2019-01-27T03:24:41.079Z,98102.98
2019-01-27T03:29:44.541Z,98094.06
2019-01-27T03:34:48.013Z,98099.31
2019-01-27T03:39:51.488Z,98097.28
2019-01-27T03:44:54.961Z,98081.32
2019-01-27T03:49:58.441Z,98072.86
2019-01-27T03:55:01.923Z,98067.33
2019-01-27T04:00:08.850Z,98061.02
2019-01-27T04:05:12.509Z,98063.02
2019-01-27T04:10:23.614Z,98041.34
2019-01-27T04:15:27.085Z,98039.95
2019-01-27T04:20:30.565Z,98023.50
2019-01-27T04:25:34.041Z,98017.03
2019-01-27T04:30:37.785Z,98019.80
2019-01-27T04:35:41.258Z,98011.34
2019-01-27T04:40:44.731Z,98007.05
2019-01-27T04:45:48.201Z,97999.51
2019-01-27T04:50:51.728Z,97988.90
2019-01-27T04:55:55.235Z,97967.40
2019-01-27T05:00:58.746Z,97957.71
2019-01-27T05:06:02.187Z,97936.30
2019-01-27T05:11:05.748Z,97933.41
2019-01-27T05:16:09.225Z,97930.50
2019-01-27T05:21:12.697Z,97913.27
2019-01-27T05:26:16.170Z,97898.52
2019-01-27T05:31:19.664Z,97890.98
2019-01-27T05:36:23.143Z,97883.29
2019-01-27T05:41:26.627Z,97890.67
2019-01-27T05:46:30.110Z,97892.06
2019-01-27T05:51:33.586Z,97885.29
2019-01-27T05:56:37.062Z,97877.61
2019-01-27T06:01:40.537Z,97857.31
2019-01-27T06:06:44.017Z,97846.39
2019-01-27T06:11:47.493Z,97837.94
2019-01-27T06:16:50.978Z,97831.64
2019-01-27T06:21:54.464Z,97826.72
2019-01-27T06:26:57.952Z,97807.96
2019-01-27T06:32:01.429Z,97807.96
2019-01-27T06:37:04.906Z,97812.87
2019-01-27T06:42:08.383Z,97802.92
2019-01-27T06:47:11.857Z,97785.09
2019-01-27T06:52:15.330Z,97780.94
2019-01-27T06:57:18.807Z,97780.94
2019-01-27T07:02:29.469Z,97775.25
2019-01-27T07:07:33.566Z,97764.80
2019-01-27T07:12:38.667Z,97755.73
2019-01-27T07:17:46.705Z,97768.03
2019-01-27T07:22:51.812Z,97756.81
2019-01-27T07:28:08.832Z,97747.13
2019-01-27T07:33:30.160Z,97740.72
2019-01-27T07:38:40.942Z,97741.30
2019-01-27T07:43:49.012Z,97742.68
2019-01-27T07:48:56.805Z,97735.77
2019-01-27T07:54:18.368Z,97750.09
2019-01-27T07:59:32.284Z,97734.58
2019-01-27T08:04:52.042Z,97732.05
2019-01-27T08:09:57.148Z,97725.44
2019-01-27T08:15:04.712Z,97712.19
2019-01-27T08:20:14.732Z,97704.35
2019-01-27T08:25:19.829Z,97702.54
2019-01-27T08:30:41.214Z,97709.63
2019-01-27T08:35:55.369Z,97708.81
2019-01-27T08:41:06.410Z,97708.59
2019-01-27T08:46:11.517Z,97707.31
2019-01-27T08:51:14.975Z,97688.38
2019-01-27T08:56:18.508Z,97692.78
2019-01-27T09:01:32.429Z,97676.14
2019-01-27T09:06:40.487Z,97675.98
2019-01-27T09:11:48.411Z,97670.25
2019-01-27T09:16:59.136Z,97673.77
2019-01-27T09:22:04.474Z,97662.13
2019-01-27T09:27:12.442Z,97662.13
2019-01-27T09:32:20.510Z,97654.44
2019-01-27T09:37:28.162Z,97651.91
2019-01-27T09:42:33.261Z,97661.57
2019-01-27T09:47:40.957Z,97671.34
2019-01-27T09:52:46.084Z,97676.71
2019-01-27T09:57:54.297Z,97681.02
2019-01-27T10:03:02.367Z,97673.12
2019-01-27T10:08:13.589Z,97667.13
2019-01-27T10:13:18.692Z,97658.20
2019-01-27T10:18:40.512Z,97659.27
2019-01-27T10:24:01.711Z,97639.53
2019-01-27T10:29:10.605Z,97646.59
2019-01-27T10:34:28.177Z,97639.21
2019-01-27T10:39:44.828Z,97618.89
2019-01-27T10:45:06.359Z,97612.86
2019-01-27T10:50:23.134Z,97603.61
2019-01-27T10:55:40.561Z,97593.09
2019-01-27T11:00:48.690Z,97598.16
2019-01-27T11:06:08.838Z,97576.16
2019-01-27T11:11:19.691Z,97574.91
2019-01-27T11:16:42.615Z,97579.00
2019-01-27T11:21:47.720Z,97574.99
2019-01-27T11:26:52.821Z,97558.67
2019-01-27T11:32:00.623Z,97549.27
2019-01-27T11:37:11.798Z,97538.81
2019-01-27T11:42:16.894Z,97530.77
2019-01-27T11:47:31.437Z,97525.23
2019-01-27T11:52:34.972Z,97528.28
2019-01-27T11:57:38.438Z,97521.98
2019-01-27T12:02:46.541Z,97497.21
2019-01-27T12:07:47.151Z,97511.34
2019-01-27T12:12:50.611Z,97502.27
2019-01-27T12:17:54.137Z,97501.17
2019-01-27T12:22:57.765Z,97502.67
2019-01-27T12:28:01.241Z,97501.43
2019-01-27T12:33:05.189Z,97496.18
2019-01-27T12:38:09.113Z,97480.47
2019-01-27T12:43:12.745Z,97476.61
2019-01-27T12:48:16.665Z,97469.68
2019-01-27T12:53:20.300Z,97460.53
2019-01-27T12:58:23.834Z,97460.81
2019-01-27T13:03:27.619Z,97446.48
2019-01-27T13:08:31.541Z,97436.14
2019-01-27T13:13:35.076Z,97430.75
2019-01-27T13:18:38.912Z,97421.33
2019-01-27T13:23:42.712Z,97421.33
2019-01-27T13:28:46.430Z,97408.67
2019-01-27T13:33:49.968Z,97411.55
2019-01-27T13:38:53.867Z,97404.77
2019-01-27T13:43:57.499Z,97397.59
2019-01-27T13:49:01.034Z,97383.66
2019-01-27T13:54:04.698Z,97371.00
2019-01-27T13:59:08.153Z,97370.86
2019-01-27T14:04:12.698Z,97369.36
2019-01-27T14:09:16.157Z,97368.09
2019-01-27T14:14:20.114Z,97365.94
2019-01-27T14:19:23.844Z,97364.45
2019-01-27T14:24:27.661Z,97351.70
2019-01-27T14:29:31.686Z,97355.09
2019-01-27T14:34:35.613Z,97362.64
2019-01-27T14:39:39.537Z,97352.04
2019-01-27T14:44:43.463Z,97349.75
2019-01-27T14:49:46.990Z,97346.88
2019-01-27T14:54:50.805Z,97352.27
2019-01-27T14:59:54.534Z,97349.98
2019-01-27T15:04:58.360Z,97338.00
2019-01-27T15:10:02.179Z,97337.09
2019-01-27T15:15:09.140Z,97331.92
2019-01-27T15:20:19.353Z,97340.09
2019-01-27T15:25:23.287Z,97334.27
2019-01-27T15:30:31.917Z,97343.81
2019-01-27T15:35:36.258Z,97351.36
2019-01-27T15:40:40.186Z,97348.45
2019-01-27T15:45:44.510Z,97346.44
2019-01-27T15:50:48.059Z,97350.48
2019-01-27T15:55:52.254Z,97342.03
2019-01-27T16:00:56.186Z,97355.11
2019-01-27T16:06:00.009Z,97347.57
2019-01-27T16:11:03.836Z,97346.81
2019-01-27T16:16:07.654Z,97346.05
2019-01-27T16:21:11.481Z,97353.11
2019-01-27T16:26:15.406Z,97349.58
2019-01-27T16:31:29.798Z,97342.66
2019-01-27T16:36:33.792Z,97341.27
2019-01-27T16:41:37.909Z,97322.80
2019-01-27T16:46:41.842Z,97329.44
2019-01-27T16:51:49.132Z,97345.97
2019-01-27T16:56:51.336Z,97348.87
2019-01-27T17:01:59.039Z,97353.94
2019-01-27T17:07:00.742Z,97353.31
2019-01-27T17:12:05.050Z,97348.39
2019-01-27T17:17:08.888Z,97340.09
2019-01-27T17:22:12.720Z,97338.70
2019-01-27T17:27:16.623Z,97333.45
2019-01-27T17:32:20.651Z,97340.63
2019-01-27T17:37:24.384Z,97335.85
2019-01-27T17:42:28.204Z,97338.14
2019-01-27T17:47:32.126Z,97339.66
2019-01-27T17:52:36.051Z,97337.30
2019-01-27T17:57:41.249Z,97332.03
2019-01-27T18:02:49.262Z,97326.02
2019-01-27T18:07:54.427Z,97331.07
2019-01-27T18:12:59.574Z,97337.52
2019-01-27T18:18:03.466Z,97337.52
2019-01-27T18:23:07.594Z,97337.00
2019-01-27T18:28:11.626Z,97349.75
2019-01-27T18:33:15.842Z,97344.35
2019-01-27T18:38:19.992Z,97348.78
2019-01-27T18:43:24.208Z,97351.55
2019-01-27T18:48:28.443Z,97357.20
2019-01-27T18:53:50.006Z,97359.35
2019-01-27T18:59:11.928Z,97361.50
2019-01-27T19:04:29.206Z,97366.56
2019-01-27T19:09:34.572Z,97354.09
2019-01-27T19:14:39.933Z,97351.33
2019-01-27T19:19:45.285Z,97350.84
2019-01-27T19:24:59.758Z,97364.22
2019-01-27T19:30:05.115Z,97364.22
2019-01-27T19:35:11.191Z,97367.75
2019-01-27T19:40:19.634Z,97377.44
2019-01-27T19:45:25.190Z,97372.66
2019-01-27T19:50:30.552Z,97372.16
2019-01-27T19:55:36.021Z,97376.31
2019-01-27T20:00:44.649Z,97380.60
2019-01-27T20:06:08.030Z,97376.45
2019-01-27T20:11:29.787Z,97377.83
2019-01-27T20:16:35.127Z,97393.83
2019-01-27T20:21:43.250Z,97390.30
2019-01-27T20:26:48.616Z,97390.30
2019-01-27T20:31:53.992Z,97390.44
2019-01-27T20:37:05.375Z,97385.38
2019-01-27T20:42:26.611Z,97395.70
2019-01-27T20:47:31.959Z,97395.70
2019-01-27T20:52:37.222Z,97390.05
2019-01-27T20:57:45.033Z,97383.74
2019-01-27T21:02:59.308Z,97385.23
2019-01-27T21:08:16.748Z,97375.30
2019-01-27T21:13:21.898Z,97371.14
2019-01-27T21:18:27.162Z,97383.60
2019-01-27T21:23:31.248Z,97381.31
2019-01-27T21:28:35.277Z,97388.86
2019-01-27T21:33:39.001Z,97384.08
2019-01-27T21:38:42.924Z,97384.70
2019-01-27T21:43:46.553Z,97382.42
2019-01-27T21:48:50.162Z,97389.63
2019-01-27T21:53:53.789Z,97385.95
2019-01-27T21:58:57.372Z,97382.42
2019-01-27T22:04:00.778Z,97385.19
2019-01-27T22:09:07.234Z,97382.27
2019-01-27T22:14:10.701Z,97378.27
2019-01-27T22:19:14.162Z,97382.27
2019-01-27T22:24:17.622Z,97378.73
2019-01-27T22:29:21.150Z,97376.59
2019-01-27T22:34:24.609Z,97382.13
2019-01-27T22:39:28.067Z,97379.25
2019-01-27T22:44:31.528Z,97387.56
2019-01-27T22:49:34.989Z,97385.41
2019-01-27T22:54:38.452Z,97390.19
2019-01-27T22:59:41.913Z,97390.81
2019-01-27T23:04:45.375Z,97394.97
2019-01-27T23:09:48.833Z,97404.66
2019-01-27T23:14:52.293Z,97404.66
2019-01-27T23:19:55.754Z,97403.75
2019-01-27T23:24:59.219Z,97407.14
2019-01-27T23:30:03.509Z,97416.70
2019-01-27T23:35:07.706Z,97419.47
2019-01-27T23:40:11.449Z,97423.62
2019-01-27T23:45:14.944Z,97426.39
2019-01-27T23:50:18.401Z,97427.01
2019-01-27T23:55:21.950Z,97431.16
